TPOK1: Kansas River, State-Line, KS

                                SHEF ID:       TPOK1     MARAIS DES CYGNES R NR KS-MO ST
STATION TYPE:

STAGE STAGE(2) RIV-FLOW BAT-LOAD
ft ft cfs volt
Ccp-Rev Ccp-Rev Ccp-Rev Ccp-Rev
(America/Chicago)
08/07 00:00 5.49 5.40 698 12.48
08/07 01:00 5.52 5.44 713 12.46
08/07 02:00 5.51 5.43 708 12.44
08/07 03:00 5.52 5.43 713 12.43
08/07 04:00 5.49 5.40 698 12.41
08/07 05:00 5.46 5.38 684 12.40
08/07 06:00 5.42 5.32 665 12.37
08/07 07:00 5.36 5.26 637 12.36
08/07 08:00 5.35 5.24 632 12.34
08/07 09:00 5.28 5.20 601 12.34
08/07 10:00 5.23 5.15 578 12.35
08/07 11:00 5.19 5.08 561 12.50
08/07 12:00 5.16 5.06 548 13.15
08/07 13:00 5.10 5.00 523 13.39
08/07 14:00 5.07 4.96 511 13.26
08/07 15:00 5.03 4.93 494 13.10
08/07 16:00 5.00 4.89 482 12.97
08/07 17:00 4.97 4.86 470 12.82
08/07 18:00 4.93 4.83 455 12.68
08/07 19:00 4.90 4.81 443 12.61
08/07 20:00 4.89 4.78 439 12.59
08/07 21:00 4.88 4.77 436 12.54
08/07 22:00 4.85 4.75 424 12.50
08/07 23:00 4.83 4.73 417 12.47
Data processed at Sat 08Aug2026 04:52 GMT

NOTICE: If you are parsing this page

Please convert to using our Data API. Starting early 2026 we will be migrating to: https://water.usace.army.mil with modern pages rendered in JavaScript. When this migration completes you will no longer be able to scrape this page! CWMSDataAPI (CDA)

Timeseries IDs (TSIDs)

TSIDs used from left to right in the data table
MKSL.Stage.Inst.1Hour.0.Ccp-Rev
MKSL.Stage-Alt.Inst.1Hour.0.Ccp-Rev
MKSL.Flow.Inst.1Hour.0.Ccp-Rev
MKSL.Volt-Battery Load.Inst.1Hour.0.Ccp-Rev

                            

All information presented herein is the property of the government of the United States of America and may be revised or deleted at any time without prior notice. Dissemination of this information without the expressed written consent of the Public Affairs Office, Tulsa District U.S. Army Corps of Engineers is strictly prohibited. These data are gathered electronically and, as presented, have NOT undergone any form of quality control. These data are NOT guaranteed to be valid or correct.